Latest Coastal Weather Observations for Wynyard

IDV60701

Issued at 12:02 am EDT Thursday 11 February 2016 (issued every 10 minutes, with the page automatically refreshed every 10 minutes)

About coastal observations | Map of coastal stations | Coastal observations for VIC | Marine services | Other Formats
Station Details ID: 091107 Name: WYNYARD AIRPORT Lat: -41.00 Lon: 145.73 Height: 12.0 m
Data from the previous 72 hours. | See also: Recent months at Wynyard
Date/Time
EDT
Temp

°C
Wind Pressure Rain
since 9am
mm
Weather Cloud Vis
km
Sea
Height
m
Swell
Dir
 
Speed
knots
Gust
knots
hPa Trend Height
m
Period
s
Dir
11/12:00am 13.1 WSW 7 8 1014.3 - 0.0 - - 10 - - - -
 
Date/Time
EDT
Temp

°C
Wind Pressure Rain
since 9am
mm
Weather Cloud Vis
km
Sea
Height
m
Swell
Dir
 
Speed
knots
Gust
knots
hPa Trend Height
m
Period
s
Dir
10/11:30pm 14.8 WSW 6 8 1014.2 - 0.0 - - 10 - - - -
10/11:00pm 16.5 SW 12 17 1014.4 - 0.0 - - 10 - - - -
10/10:30pm 15.8 WSW 8 12 1014.2 - 0.0 - - 10 - - - -
10/10:00pm 16.2 WSW 9 13 1014.2 - 0.0 - - 10 - - - -
10/09:30pm 16.4 WSW 7 9 1013.9 - 0.0 - - 10 - - - -
10/09:00pm 17.6 WSW 11 16 1013.5 - 0.0 - - 10 - - - -
10/08:30pm 18.0 WSW 12 16 1013.3 - 0.0 - - 10 - - - -
10/08:00pm 18.6 SSW 9 14 1013.0 - 0.0 - Partly cloudy 10 - - - -
10/07:30pm 19.9 SW 10 15 1012.6 - 0.0 - Partly cloudy 10 - - - -
10/07:00pm 20.4 WSW 14 20 1012.1 - 0.0 - Partly cloudy 10 - - - -
10/06:30pm 21.6 WSW 14 18 1011.6 - 0.0 - Partly cloudy 10 - - - -
10/06:00pm 22.0 W 15 21 1011.2 - 0.0 - Partly cloudy 10 - - - -
10/05:30pm 22.7 WSW 17 22 1010.9 - 0.0 - Cloudy 10 - - - -
10/05:00pm 23.2 W 16 23 1010.8 - 0.0 - Cloudy 10 - - - -
10/04:30pm 23.6 WNW 15 21 1010.6 - 0.0 - Cloudy 8 - - - -
10/04:00pm 23.9 WNW 16 20 1010.8 - 0.0 - Cloudy 9 - - - -
10/03:30pm 25.5 WSW 15 22 1011.0 - 0.0 - - 10 - - - -
10/03:00pm 25.6 W 17 22 1011.1 - 0.0 - - 10 - - - -
10/02:30pm 25.7 W 14 20 1011.4 - 0.0 - - 10 - - - -
10/02:00pm 25.7 WSW 13 21 1011.5 - 0.0 - - 10 - - - -
10/01:30pm 25.5 WSW 14 22 1011.6 - 0.0 - - 10 - - - -
10/01:00pm 24.9 WSW 13 22 1012.0 - 0.0 - Partly cloudy 10 - - - -
10/12:30pm 23.7 WSW 11 18 1012.6 - 0.0 - - 10 - - - -
10/12:00pm 23.5 W 10 15 1012.9 - 0.0 - - 10 - - - -
10/11:30am 21.8 WSW 11 17 1013.2 - 0.0 - - 10 - - - -
10/11:00am 21.4 SW 11 15 1013.5 - 0.0 - - 10 - - - -
10/10:30am 20.7 SW 11 17 1013.7 - 0.0 - - 10 - - - -
10/10:00am 20.3 SW 9 16 1013.6 - 0.0 - - 10 - - - -
10/09:30am 18.8 SW 7 10 1013.7 - 0.0 - - 10 - - - -
10/09:00am 17.2 SW 7 11 1013.8 - 0.0 - - 10 - - - -
10/08:30am 15.3 W 6 9 1013.7 - 0.0 - - 10 - - - -
10/08:00am 13.7 WNW 7 7 1013.4 - 0.0 - - 10 - - - -
10/07:30am 12.4 WNW 7 9 1013.4 - 0.0 - - 10 - - - -
10/07:00am 11.8 WNW 6 8 1013.2 - 0.0 - - 8 - - - -
10/06:30am 10.9 W 6 7 1013.2 - 0.0 - - 7 - - - -
10/06:00am 12.0 WNW 8 8 1013.1 - 0.0 - Mostly clear 9 - - - -
10/05:30am 12.3 WNW 8 9 1013.1 - 0.0 - Partly cloudy 9 - - - -
10/05:00am 10.6 W 6 7 1013.2 - 0.0 - Partly cloudy 6 - - - -
10/04:30am 11.4 W 6 6 1013.4 - 0.0 - Cloudy 8 - - - -
10/04:00am 11.2 WSW 4 5 1013.7 - 0.0 - Partly cloudy 8 - - - -
10/03:30am 12.0 W 5 6 1013.7 - 0.0 - Partly cloudy 9 - - - -
10/03:00am 12.3 WNW 6 7 1013.9 - 0.0 - Cloudy 10 - - - -
10/02:30am 12.2 CALM 0 0 1014.1 - 0.0 - - 10 - - - -
10/02:00am 12.0 WSW 4 5 1014.3 - 0.0 - - 9 - - - -
10/01:30am 12.6 WSW 5 5 1014.6 - 0.0 - Partly cloudy 10 - - - -
10/01:00am 13.3 WSW 3 4 1015.1 - 0.0 - Cloudy 10 - - - -
10/12:30am 14.6 SW 1 4 1015.3 - 0.0 - Cloudy 10 - - - -
10/12:00am 15.8 CALM 0 0 1015.5 - 0.0 - Cloudy 10 - - - -
 
Date/Time
EDT
Temp

°C
Wind Pressure Rain
since 9am
mm
Weather Cloud Vis
km
Sea
Height
m
Swell
Dir
 
Speed
knots
Gust
knots
hPa Trend Height
m
Period
s
Dir
09/11:30pm 16.2 SSW 3 4 1015.6 - 0.0 - Cloudy 10 - - - -
09/11:00pm 16.8 SSW 6 9 1015.7 - 0.0 - Cloudy 10 - - - -
09/10:30pm 16.5 SSW 3 5 1016.1 - 0.0 - Cloudy 10 - - - -
09/10:00pm 16.6 SSW 2 6 1016.4 - 0.0 - Cloudy 10 - - - -
09/09:30pm 16.8 CALM 0 0 1016.3 - 0.0 - Cloudy 10 - - - -
09/09:00pm 17.6 CALM 0 0 1016.3 - 0.0 - Cloudy 10 - - - -
09/08:30pm 18.9 NNW 4 4 1016.4 - 0.0 - Cloudy 10 - - - -
09/08:00pm 19.0 NNE 4 5 1016.5 - 0.0 - - 10 - - - -
09/07:30pm 19.5 NE 5 7 1016.5 - 0.0 - - 10 - - - -
09/07:00pm 19.9 NE 5 7 1016.5 - 0.0 - Partly cloudy 10 - - - -
09/06:30pm 20.0 NE 5 7 1016.5 - 0.0 - Cloudy 10 - - - -
09/06:00pm 20.1 ENE 5 7 1017.0 - 0.0 - Mostly cloudy 10 - - - -
09/05:30pm 20.1 NNE 6 9 1017.2 - 0.0 - Cloudy 10 - - - -
09/05:00pm 21.1 NE 7 10 1017.3 - 0.0 - Partly cloudy 10 - - - -
09/04:30pm 21.7 NE 9 12 1017.5 - 0.0 - - 10 - - - -
09/04:00pm 21.4 ENE 11 14 1017.8 - 0.0 - - 10 - - - -
09/03:30pm 22.0 ENE 9 13 1018.1 - 0.0 - - 10 - - - -
09/03:00pm 22.2 ENE 10 13 1018.5 - 0.0 - - 10 - - - -
09/02:30pm 21.8 NE 10 14 1019.0 - 0.0 - - 10 - - - -
09/02:00pm 22.4 ENE 9 13 1019.4 - 0.0 - - 10 - - - -
09/01:30pm 22.0 ENE 9 15 1019.6 - 0.0 - - 10 - - - -
09/01:00pm 22.1 ENE 11 14 1019.7 - 0.0 - Partly cloudy 10 - - - -
09/12:30pm 22.7 E 12 17 1019.9 - 0.0 - Partly cloudy 10 - - - -
09/12:00pm 22.5 E 11 17 1020.2 - 0.0 - Partly cloudy 10 - - - -
09/11:30am 22.8 E 12 17 1020.3 - 0.0 - Partly cloudy 10 - - - -
09/11:00am 22.0 ESE 11 17 1020.4 - 0.0 - Cloudy 10 - - - -
09/10:30am 21.5 ESE 12 16 1020.7 - 0.0 - Partly cloudy 10 - - - -
09/10:00am 22.3 E 11 17 1020.5 - 0.0 - Partly cloudy 10 - - - -
09/09:30am 21.1 ESE 10 17 1020.7 - 0.0 - Partly cloudy 10 - - - -
09/09:00am 20.3 SE 7 10 1020.7 - 0.0 - Partly cloudy 10 - - - -
09/08:30am 20.6 SSE 7 11 1020.6 - 0.0 - Partly cloudy 10 - - - -
09/08:00am 17.9 SW 4 5 1020.5 - 0.0 - Cloudy 10 - - - -
09/07:30am 16.7 SSW 6 7 1020.2 - 0.0 - Cloudy 10 - - - -
09/07:00am 16.4 SSW 7 9 1020.2 - 0.0 - Partly cloudy 10 - - - -
09/06:30am 16.3 SW 7 9 1020.1 - 0.0 - Cloudy 10 - - - -
09/06:00am 16.0 SW 6 8 1019.7 - 0.0 - Mostly cloudy 10 - - - -
09/05:30am 14.5 W 5 7 1019.6 - 0.0 - Partly cloudy 10 - - - -
09/05:00am 15.7 SW 7 8 1019.5 - 0.0 - Cloudy 10 - - - -
09/04:30am 15.4 WSW 6 10 1019.6 - 0.0 - Partly cloudy 10 - - - -
09/04:00am 15.6 SW 7 9 1019.5 - 0.0 - Cloudy 10 - - - -
09/03:30am 15.5 SW 6 8 1019.8 - 0.0 - Partly cloudy 10 - - - -
09/03:00am 15.6 SW 6 9 1019.7 - 0.0 - - 10 - - - -
09/02:30am 16.0 S 4 7 1019.7 - 0.0 - - 10 - - - -
09/02:00am 16.2 S 7 10 1019.6 - 0.0 - - 10 - - - -
09/01:30am 16.7 SSW 9 15 1019.6 - 0.0 - - 10 - - - -
09/01:00am 16.9 SW 8 14 1019.5 - 0.0 - - 10 - - - -
09/12:30am 16.7 SW 11 16 1019.5 - 0.0 - - 10 - - - -
09/12:00am 16.2 WSW 6 11 1019.8 - 0.0 - - 10 - - - -
 
Date/Time
EDT
Temp

°C
Wind Pressure Rain
since 9am
mm
Weather Cloud Vis
km
Sea
Height
m
Swell
Dir
 
Speed
knots
Gust
knots
hPa Trend Height
m
Period
s
Dir
08/11:30pm 16.5 WSW 8 12 1019.7 - 0.0 - - 10 - - - -
08/11:00pm 16.7 SW 15 21 1019.7 - 0.0 - - 10 - - - -
08/10:30pm 16.9 SW 11 15 1020.3 - 0.0 - - 10 - - - -
08/10:00pm 17.6 SW 16 22 1020.0 - 0.0 - - 10 - - - -
08/09:53pm 17.7 WSW 15 22 1019.9 - 0.0 - - 10 - - - -
08/09:30pm 18.0 SW 7 11 1020.2 - 0.0 - - 10 - - - -
08/09:00pm 18.8 SW 11 14 1019.6 - 0.0 - - 10 - - - -
08/08:30pm 19.9 SW 11 19 1019.3 - 0.0 - - 10 - - - -
08/08:00pm 21.4 SW 13 20 1018.9 - 0.0 - - 10 - - - -
08/07:30pm 23.0 SW 13 19 1018.5 - 0.0 - - 10 - - - -
08/07:00pm 24.1 SW 15 20 1018.0 - 0.0 - - 10 - - - -
08/06:30pm 25.5 SW 15 21 1017.6 - 0.0 - - 10 - - - -
08/06:00pm 26.2 SSW 15 19 1017.4 - 0.0 - - 10 - - - -
08/05:30pm 26.9 SSW 12 18 1017.2 - 0.0 - - 10 - - - -
08/05:00pm 28.2 SW 13 18 1017.2 - 0.0 - - 10 - - - -
08/04:30pm 27.8 S 13 20 1017.3 - 0.0 - - 10 - - - -
08/04:00pm 27.5 S 14 24 1017.2 - 0.0 - - 10 - - - -
08/03:30pm 28.2 SW 12 21 1017.4 - 0.0 - - 10 - - - -
08/03:00pm 27.8 SSW 11 16 1017.6 - 0.0 - - 10 - - - -
08/02:30pm 28.1 SW 13 19 1017.9 - 0.0 - - 10 - - - -
08/02:00pm 26.9 SW 12 20 1018.1 - 0.0 - - 10 - - - -
08/01:30pm 26.4 SW 14 20 1018.2 - 0.0 - - 10 - - - -
08/01:00pm 25.8 WSW 11 17 1018.4 - 0.0 - - 10 - - - -
08/12:30pm 25.5 SW 10 16 1018.7 - 0.0 - - 10 - - - -
08/12:00pm 24.4 SW 14 21 1018.9 - 0.0 - - 10 - - - -
08/11:30am 23.6 SW 14 19 1019.2 - 0.0 - - 10 - - - -
08/11:00am 22.9 WSW 14 18 1019.2 - 0.0 - - 10 - - - -
08/10:30am 22.5 SW 13 19 1019.3 - 0.0 - - 10 - - - -
08/10:00am 22.0 SSW 15 22 1019.3 - 0.0 - - 10 - - - -
08/09:30am 20.9 SW 13 22 1019.4 - 0.0 - - 10 - - - -
08/09:00am 19.8 W 9 11 1019.4 - 0.0 - - 10 - - - -
08/08:30am 18.2 W 8 10 1019.3 - 0.0 - - 10 - - - -
08/08:00am 17.1 W 7 8 1019.2 - 0.0 - - 10 - - - -
08/07:30am 15.5 W 7 9 1019.0 - 0.0 - - 10 - - - -
08/07:00am 13.2 WNW 5 6 1018.6 - 0.0 - - 10 - - - -
08/06:30am 12.9 WNW 5 6 1018.3 - 0.0 - - 10 - - - -
08/06:00am 14.7 WNW 7 8 1017.9 - 0.0 - - 10 - - - -
08/05:30am 14.6 WNW 7 8 1017.6 - 0.0 - - 10 - - - -
08/05:00am 14.5 WNW 7 7 1017.5 - 0.0 - - 10 - - - -
08/04:30am 14.7 WNW 7 8 1017.5 - 0.0 - - 10 - - - -
08/04:00am 13.9 W 7 8 1017.6 - 0.0 - - 10 - - - -
08/03:30am 14.7 WNW 8 8 1017.6 - 0.0 - Partly cloudy 10 - - - -
08/03:00am 14.4 WNW 5 6 1017.8 - 0.0 - - 10 - - - -
08/02:30am 14.7 WNW 8 9 1017.8 - 0.0 - Partly cloudy 10 - - - -
08/02:00am 15.4 WNW 8 8 1017.9 - 0.0 - Partly cloudy 10 - - - -
08/01:30am 14.2 WNW 6 7 1018.0 - 0.0 - - 10 - - - -
08/01:00am 14.4 WSW 5 5 1018.0 - 0.0 - - 10 - - - -
08/12:30am 14.5 WSW 4 5 1017.7 - 0.0 - - 10 - - - -

Other Formats:

Comma delimited format used in spreadsheet applications
http://www.bom.gov.au/fwo/IDV60701/IDV60701.95957.axf

JavaScript Object Notation format (JSON) in row-major order
http://www.bom.gov.au/fwo/IDV60701/IDV60701.95957.json